createdAt,value
2023-04-23T00:04:50.645Z,10.35
2023-04-23T00:09:43.909Z,10.05
2023-04-23T00:14:36.125Z,8.38
2023-04-23T00:19:27.959Z,7.82
2023-04-23T00:24:20.603Z,8.45
2023-04-23T00:29:12.983Z,7.28
2023-04-23T00:34:04.954Z,6.97
2023-04-23T00:38:56.742Z,6.70
2023-04-23T00:43:49.273Z,8.13
2023-04-23T00:48:42.045Z,7.53
2023-04-23T00:53:34.426Z,8.02
2023-04-23T00:58:26.334Z,8.63
2023-04-23T01:03:19.003Z,7.47
2023-04-23T01:08:15.601Z,9.05
2023-04-23T01:13:07.425Z,9.90
2023-04-23T01:17:59.817Z,8.73
2023-04-23T01:22:52.067Z,9.98
2023-04-23T01:27:44.072Z,10.20
2023-04-23T01:32:36.153Z,9.75
2023-04-23T01:37:29.515Z,9.52
2023-04-23T01:42:21.385Z,7.63
2023-04-23T01:47:13.203Z,6.53
2023-04-23T01:52:05.134Z,6.50
2023-04-23T01:56:57.198Z,7.40
2023-04-23T02:01:49.929Z,8.15
2023-04-23T02:06:43.994Z,7.32
2023-04-23T02:11:35.886Z,8.65
2023-04-23T02:16:28.712Z,9.15
2023-04-23T02:21:21.259Z,7.07
2023-04-23T02:26:13.089Z,8.13
2023-04-23T02:31:05.242Z,6.82
2023-04-23T02:35:57.077Z,6.68
2023-04-23T02:40:48.959Z,5.20
2023-04-23T02:45:40.778Z,6.30
2023-04-23T02:50:32.544Z,5.32
2023-04-23T02:55:25.506Z,5.20
2023-04-23T03:00:18.340Z,4.50
2023-04-23T03:05:10.418Z,4.18
2023-04-23T03:10:02.575Z,4.20
2023-04-23T03:14:54.544Z,4.28
2023-04-23T03:19:49.672Z,3.65
2023-04-23T03:24:42.754Z,3.72
2023-04-23T03:29:34.806Z,3.97
2023-04-23T03:34:26.981Z,3.47
2023-04-23T03:39:18.784Z,3.28
2023-04-23T03:44:15.114Z,3.08
2023-04-23T03:49:09.790Z,3.42
2023-04-23T03:54:02.061Z,3.13
2023-04-23T03:58:56.660Z,3.15
2023-04-23T04:03:48.736Z,3.25
2023-04-23T04:08:41.123Z,2.88
2023-04-23T04:13:32.909Z,3.83
2023-04-23T04:18:24.648Z,3.05
2023-04-23T04:23:16.472Z,3.22
2023-04-23T04:28:09.628Z,3.50
2023-04-23T04:33:01.701Z,2.83
2023-04-23T04:37:55.008Z,3.22
2023-04-23T04:42:47.288Z,3.42
2023-04-23T04:47:39.164Z,2.72
2023-04-23T04:52:31.453Z,3.13
2023-04-23T04:57:23.344Z,3.85
2023-04-23T05:02:15.197Z,3.05
2023-04-23T05:07:07.102Z,3.92
2023-04-23T05:11:58.874Z,4.32
2023-04-23T05:16:50.702Z,3.72
2023-04-23T05:21:42.802Z,4.80
2023-04-23T05:26:34.800Z,5.18
2023-04-23T05:31:28.144Z,5.68
2023-04-23T05:36:21.355Z,5.93
2023-04-23T05:41:13.267Z,6.75
2023-04-23T05:46:07.559Z,5.95
2023-04-23T05:50:59.956Z,6.97
2023-04-23T05:55:51.834Z,7.95
2023-04-23T06:00:43.662Z,7.85
2023-04-23T06:05:36.355Z,7.78
2023-04-23T06:10:28.344Z,7.97
2023-04-23T06:15:20.336Z,8.07
2023-04-23T06:20:12.235Z,8.27
2023-04-23T06:25:04.584Z,8.85
2023-04-23T06:29:56.441Z,8.55
2023-04-23T06:35:00.247Z,8.57
2023-04-23T06:39:53.036Z,8.32
2023-04-23T06:44:46.962Z,8.85
2023-04-23T06:49:40.150Z,7.70
2023-04-23T06:54:32.016Z,7.10
2023-04-23T06:59:23.759Z,8.38
2023-04-23T07:04:19.178Z,8.02
2023-04-23T07:09:11.155Z,8.52
2023-04-23T07:14:03.875Z,7.85
2023-04-23T07:18:56.100Z,9.13
2023-04-23T07:23:47.892Z,8.20
2023-04-23T07:28:39.738Z,11.18
2023-04-23T07:33:31.583Z,9.35
2023-04-23T07:38:23.412Z,9.50
2023-04-23T07:43:17.034Z,11.65
2023-04-23T07:48:08.826Z,11.48
2023-04-23T07:53:00.836Z,9.07
2023-04-23T07:57:52.631Z,13.55
2023-04-23T08:02:44.620Z,10.60
2023-04-23T08:07:36.863Z,13.15
2023-04-23T08:12:29.709Z,14.63
2023-04-23T08:17:21.528Z,16.27
2023-04-23T08:22:13.693Z,17.45
2023-04-23T08:27:06.003Z,19.02
2023-04-23T08:31:58.035Z,16.45
2023-04-23T08:36:49.939Z,18.65
2023-04-23T08:41:43.107Z,21.25
2023-04-23T08:46:37.577Z,17.35
2023-04-23T08:51:30.845Z,18.42
2023-04-23T08:56:24.513Z,16.13
2023-04-23T09:01:17.819Z,19.95
2023-04-23T09:06:10.072Z,18.77
2023-04-23T09:11:02.739Z,17.15
2023-04-23T09:15:54.542Z,15.02
2023-04-23T09:20:46.474Z,17.15
2023-04-23T09:25:38.344Z,16.67
2023-04-23T09:30:30.970Z,16.50
2023-04-23T09:35:23.070Z,14.35
2023-04-23T09:40:20.401Z,12.00
2023-04-23T09:45:13.024Z,11.95
2023-04-23T09:50:06.271Z,12.20
2023-04-23T09:55:01.616Z,11.75
2023-04-23T10:00:06.909Z,13.82
2023-04-23T10:05:24.237Z,13.60
2023-04-23T10:10:20.505Z,11.13
2023-04-23T10:15:13.723Z,11.75
2023-04-23T10:20:07.315Z,10.65
2023-04-23T10:25:04.050Z,9.38
2023-04-23T10:29:57.960Z,9.75
2023-04-23T10:34:50.958Z,9.02
2023-04-23T10:39:44.891Z,10.02
2023-04-23T10:49:34.661Z,7.00
2023-04-23T10:54:31.464Z,6.07
2023-04-23T10:59:23.594Z,6.93
2023-04-23T11:04:21.514Z,5.68
2023-04-23T11:09:48.743Z,5.68
2023-04-23T11:14:46.730Z,5.45
2023-04-23T11:19:40.566Z,6.10
2023-04-23T11:24:41.928Z,6.15
2023-04-23T11:29:34.269Z,6.57
2023-04-23T11:34:26.430Z,5.20
2023-04-23T11:39:19.547Z,6.40
2023-04-23T11:44:11.964Z,7.03
2023-04-23T11:49:03.865Z,5.93
2023-04-23T11:54:03.168Z,6.18
2023-04-23T11:59:05.338Z,6.60
2023-04-23T12:03:57.392Z,5.80
2023-04-23T12:08:49.582Z,5.13
2023-04-23T12:13:43.064Z,5.43
2023-04-23T12:18:40.574Z,4.68
2023-04-23T12:23:33.780Z,4.77
2023-04-23T12:28:26.280Z,5.22
2023-04-23T12:33:18.553Z,4.45
2023-04-23T12:38:27.700Z,4.60
2023-04-23T12:43:19.673Z,5.20
2023-04-23T12:48:12.110Z,5.53
2023-04-23T12:53:04.456Z,5.85
2023-04-23T12:57:56.325Z,4.97
2023-04-23T13:02:48.238Z,4.70
2023-04-23T13:07:40.212Z,4.78
2023-04-23T13:12:31.997Z,4.82
2023-04-23T13:17:26.486Z,4.40
2023-04-23T13:22:18.539Z,6.43
2023-04-23T13:27:11.262Z,5.90
2023-04-23T13:32:03.470Z,4.15
2023-04-23T13:36:55.338Z,4.72
2023-04-23T13:41:59.128Z,4.80
2023-04-23T13:46:59.495Z,4.10
2023-04-23T13:51:54.336Z,4.32
2023-04-23T13:56:47.108Z,5.28
2023-04-23T14:01:39.357Z,4.72
2023-04-23T14:06:31.364Z,4.70
2023-04-23T14:11:23.209Z,4.93
2023-04-23T14:16:15.137Z,5.18
2023-04-23T14:21:07.719Z,5.40
2023-04-23T14:26:04.552Z,5.07
2023-04-23T14:30:57.969Z,5.00
2023-04-23T14:35:49.802Z,4.90
2023-04-23T14:40:41.617Z,5.30
2023-04-23T14:45:33.783Z,3.47
2023-04-23T14:50:25.798Z,2.92
2023-04-23T14:55:18.216Z,2.50
2023-04-23T15:00:13.411Z,2.60
2023-04-23T15:05:05.710Z,2.35
2023-04-23T15:09:57.450Z,2.45
2023-04-23T15:14:51.310Z,2.35
2023-04-23T15:19:43.478Z,2.20
2023-04-23T15:24:35.402Z,2.30
2023-04-23T15:29:27.182Z,2.42
2023-04-23T15:34:18.959Z,2.05
2023-04-23T15:39:11.111Z,1.90
2023-04-23T15:44:02.978Z,2.00
2023-04-23T15:48:54.784Z,2.40
2023-04-23T15:53:46.555Z,2.03
2023-04-23T15:58:38.370Z,2.15
2023-04-23T16:03:30.312Z,1.95
2023-04-23T16:08:22.286Z,1.92
2023-04-23T16:13:14.090Z,1.52
2023-04-23T16:18:06.473Z,1.83
2023-04-23T16:22:58.381Z,3.00
2023-04-23T16:27:50.495Z,1.83
2023-04-23T16:32:42.413Z,1.48
2023-04-23T16:37:34.770Z,1.80
2023-04-23T16:42:27.048Z,1.60
2023-04-23T16:47:18.867Z,1.65
2023-04-23T16:52:11.333Z,1.80
2023-04-23T16:57:05.968Z,1.67
2023-04-23T17:01:57.835Z,2.30
2023-04-23T17:06:49.631Z,1.67
2023-04-23T17:11:41.574Z,1.70
2023-04-23T17:16:33.589Z,2.35
2023-04-23T17:21:26.087Z,1.65
2023-04-23T17:26:17.856Z,1.90
2023-04-23T17:31:09.957Z,2.45
2023-04-23T17:36:01.916Z,1.67
2023-04-23T17:40:53.855Z,1.75
2023-04-23T17:45:45.956Z,1.75
2023-04-23T17:50:37.875Z,1.83
2023-04-23T17:55:30.255Z,2.53
2023-04-23T18:00:22.763Z,2.17
2023-04-23T18:05:16.485Z,2.67
2023-04-23T18:10:09.124Z,2.00
2023-04-23T18:15:01.445Z,2.72
2023-04-23T18:19:54.421Z,1.63
2023-04-23T18:24:46.663Z,2.35
2023-04-23T18:29:38.501Z,2.20
2023-04-23T18:34:35.623Z,2.60
2023-04-23T18:39:29.052Z,2.25
2023-04-23T18:44:23.636Z,4.78
2023-04-23T18:49:31.621Z,2.90
2023-04-23T18:54:25.719Z,2.60
2023-04-23T18:59:18.873Z,2.47
2023-04-23T19:04:11.009Z,2.80
2023-04-23T19:09:02.935Z,2.88
2023-04-23T19:13:54.741Z,4.03
2023-04-23T19:18:46.609Z,3.40
2023-04-23T19:23:38.405Z,2.95
2023-04-23T19:28:30.798Z,3.97
2023-04-23T19:33:23.217Z,3.20
2023-04-23T19:38:15.047Z,2.97
2023-04-23T19:43:07.539Z,2.75
2023-04-23T19:48:00.132Z,2.83
2023-04-23T19:52:52.627Z,2.80
2023-04-23T19:57:44.442Z,3.50
2023-04-23T20:02:36.388Z,3.55
2023-04-23T20:07:28.283Z,3.00
2023-04-23T20:12:20.363Z,2.55
2023-04-23T20:17:12.506Z,3.60
2023-04-23T20:22:04.486Z,2.70
2023-04-23T20:26:56.783Z,2.65
2023-04-23T20:31:49.503Z,2.50
2023-04-23T20:36:41.851Z,2.58
2023-04-23T20:41:37.048Z,3.22
2023-04-23T20:46:32.648Z,2.78
2023-04-23T20:51:24.790Z,2.85
2023-04-23T20:56:17.538Z,2.67
2023-04-23T21:01:11.596Z,2.38
2023-04-23T21:06:04.453Z,2.78
2023-04-23T21:10:57.097Z,2.80
2023-04-23T21:15:49.155Z,2.97
2023-04-23T21:20:41.098Z,2.88
2023-04-23T21:25:36.226Z,3.13
2023-04-23T21:30:37.234Z,2.63
2023-04-23T21:35:29.002Z,2.78
2023-04-23T21:40:20.864Z,3.13
2023-04-23T21:45:12.669Z,2.60
2023-04-23T21:50:05.472Z,3.60
2023-04-23T21:54:57.396Z,3.08
2023-04-23T21:59:49.284Z,2.65
2023-04-23T22:04:41.922Z,3.00
2023-04-23T22:09:33.701Z,2.78
2023-04-23T22:14:25.812Z,3.10
2023-04-23T22:19:19.062Z,3.05
2023-04-23T22:24:10.980Z,2.95
2023-04-23T22:29:02.797Z,2.78
2023-04-23T22:33:57.350Z,2.90
2023-04-23T22:38:49.175Z,3.33
2023-04-23T22:43:40.933Z,2.92
2023-04-23T22:48:32.805Z,2.88
2023-04-23T22:53:24.766Z,2.63
2023-04-23T22:58:16.574Z,3.42
2023-04-23T23:03:08.575Z,3.03
2023-04-23T23:08:00.606Z,3.13
2023-04-23T23:12:52.686Z,3.08
2023-04-23T23:17:44.619Z,3.25
2023-04-23T23:22:36.627Z,3.53
2023-04-23T23:27:28.434Z,3.72
2023-04-23T23:32:20.179Z,3.78
2023-04-23T23:37:12.357Z,3.45
2023-04-23T23:42:04.202Z,3.78
2023-04-23T23:46:56.468Z,3.75
2023-04-23T23:51:48.405Z,3.60
2023-04-23T23:56:40.307Z,3.33
